sensor_id;sensor_type;location;lat;lon;timestamp;temperature;humidity
61412;DHT22;47278;49.732;7.690;2022-09-09T00:00:47;14.20;99.90
61412;DHT22;47278;49.732;7.690;2022-09-09T00:03:16;14.20;99.90
61412;DHT22;47278;49.732;7.690;2022-09-09T00:08:17;14.20;99.90
61412;DHT22;47278;49.732;7.690;2022-09-09T00:10:44;14.10;99.90
61412;DHT22;47278;49.732;7.690;2022-09-09T00:15:38;14.10;99.90
61412;DHT22;47278;49.732;7.690;2022-09-09T00:18:13;14.10;99.90
61412;DHT22;47278;49.732;7.690;2022-09-09T00:20:44;14.10;99.90
61412;DHT22;47278;49.732;7.690;2022-09-09T00:23:17;14.00;99.90
61412;DHT22;47278;49.732;7.690;2022-09-09T00:28:30;13.90;99.90
61412;DHT22;47278;49.732;7.690;2022-09-09T00:31:14;13.90;99.90
61412;DHT22;47278;49.732;7.690;2022-09-09T00:33:40;14.00;99.90
61412;DHT22;47278;49.732;7.690;2022-09-09T00:36:14;14.20;99.90
61412;DHT22;47278;49.732;7.690;2022-09-09T00:38:45;14.20;99.90
61412;DHT22;47278;49.732;7.690;2022-09-09T00:41:22;14.20;99.90
61412;DHT22;47278;49.732;7.690;2022-09-09T00:44:06;14.20;99.90
61412;DHT22;47278;49.732;7.690;2022-09-09T00:47:21;14.20;99.90
61412;DHT22;47278;49.732;7.690;2022-09-09T00:52:03;14.10;99.90
61412;DHT22;47278;49.732;7.690;2022-09-09T00:59:56;14.10;99.90
61412;DHT22;47278;49.732;7.690;2022-09-09T01:04:48;14.00;99.90
61412;DHT22;47278;49.732;7.690;2022-09-09T01:07:17;13.90;99.90
61412;DHT22;47278;49.732;7.690;2022-09-09T01:09:56;13.90;99.90
61412;DHT22;47278;49.732;7.690;2022-09-09T01:12:41;13.90;99.90
61412;DHT22;47278;49.732;7.690;2022-09-09T01:20:14;14.00;99.90
61412;DHT22;47278;49.732;7.690;2022-09-09T01:22:50;14.00;99.90
61412;DHT22;47278;49.732;7.690;2022-09-09T01:27:43;14.00;99.90
61412;DHT22;47278;49.732;7.690;2022-09-09T01:30:13;14.00;99.90
61412;DHT22;47278;49.732;7.690;2022-09-09T01:32:43;14.00;99.90
61412;DHT22;47278;49.732;7.690;2022-09-09T01:35:13;14.00;99.90
61412;DHT22;47278;49.732;7.690;2022-09-09T01:37:40;14.00;99.90
61412;DHT22;47278;49.732;7.690;2022-09-09T01:40:06;13.90;99.90
61412;DHT22;47278;49.732;7.690;2022-09-09T01:42:32;13.90;99.90
61412;DHT22;47278;49.732;7.690;2022-09-09T01:44:57;13.90;99.90
61412;DHT22;47278;49.732;7.690;2022-09-09T01:47:23;13.80;99.90
61412;DHT22;47278;49.732;7.690;2022-09-09T01:49:48;13.80;99.90
61412;DHT22;47278;49.732;7.690;2022-09-09T01:52:14;13.80;99.90
61412;DHT22;47278;49.732;7.690;2022-09-09T01:54:39;13.60;99.90
61412;DHT22;47278;49.732;7.690;2022-09-09T01:57:11;13.50;99.90
61412;DHT22;47278;49.732;7.690;2022-09-09T02:04:43;13.50;99.90
61412;DHT22;47278;49.732;7.690;2022-09-09T02:09:57;13.60;99.90
61412;DHT22;47278;49.732;7.690;2022-09-09T02:12:24;13.60;99.90
61412;DHT22;47278;49.732;7.690;2022-09-09T02:14:52;13.60;99.90
61412;DHT22;47278;49.732;7.690;2022-09-09T02:17:22;13.70;99.90
61412;DHT22;47278;49.732;7.690;2022-09-09T02:19:51;13.80;99.90
61412;DHT22;47278;49.732;7.690;2022-09-09T02:22:19;13.80;99.90
61412;DHT22;47278;49.732;7.690;2022-09-09T02:24:46;13.80;99.90
61412;DHT22;47278;49.732;7.690;2022-09-09T02:27:12;13.80;99.90
61412;DHT22;47278;49.732;7.690;2022-09-09T02:29:40;13.80;99.90
61412;DHT22;47278;49.732;7.690;2022-09-09T02:32:14;13.70;99.90
61412;DHT22;47278;49.732;7.690;2022-09-09T02:34:44;13.70;99.90
61412;DHT22;47278;49.732;7.690;2022-09-09T02:37:11;13.60;99.90
61412;DHT22;47278;49.732;7.690;2022-09-09T02:39:37;13.60;99.90
61412;DHT22;47278;49.732;7.690;2022-09-09T02:42:06;13.50;99.90
61412;DHT22;47278;49.732;7.690;2022-09-09T02:44:33;13.40;99.90
61412;DHT22;47278;49.732;7.690;2022-09-09T02:52:45;13.20;99.90
61412;DHT22;47278;49.732;7.690;2022-09-09T02:55:19;13.30;99.90
61412;DHT22;47278;49.732;7.690;2022-09-09T02:57:47;13.20;99.90
61412;DHT22;47278;49.732;7.690;2022-09-09T03:00:13;13.20;99.90
61412;DHT22;47278;49.732;7.690;2022-09-09T03:02:38;13.20;99.90
61412;DHT22;47278;49.732;7.690;2022-09-09T03:05:04;13.20;99.90
61412;DHT22;47278;49.732;7.690;2022-09-09T03:07:30;13.20;99.90
61412;DHT22;47278;49.732;7.690;2022-09-09T03:09:56;13.20;99.90
61412;DHT22;47278;49.732;7.690;2022-09-09T03:12:21;13.20;99.90
61412;DHT22;47278;49.732;7.690;2022-09-09T03:14:47;13.30;99.90
61412;DHT22;47278;49.732;7.690;2022-09-09T03:17:12;13.50;99.90
61412;DHT22;47278;49.732;7.690;2022-09-09T03:19:38;13.60;99.90
61412;DHT22;47278;49.732;7.690;2022-09-09T03:22:05;13.60;99.90
61412;DHT22;47278;49.732;7.690;2022-09-09T03:24:30;13.70;99.90
61412;DHT22;47278;49.732;7.690;2022-09-09T03:26:56;13.80;99.90
61412;DHT22;47278;49.732;7.690;2022-09-09T03:29:21;13.80;99.90
61412;DHT22;47278;49.732;7.690;2022-09-09T03:31:47;13.80;99.90
61412;DHT22;47278;49.732;7.690;2022-09-09T03:34:12;13.90;99.90
61412;DHT22;47278;49.732;7.690;2022-09-09T03:36:39;13.90;99.90
61412;DHT22;47278;49.732;7.690;2022-09-09T03:39:04;13.90;99.90
61412;DHT22;47278;49.732;7.690;2022-09-09T03:41:30;13.90;99.90
61412;DHT22;47278;49.732;7.690;2022-09-09T03:43:56;13.70;99.90
61412;DHT22;47278;49.732;7.690;2022-09-09T03:46:22;13.60;99.90
61412;DHT22;47278;49.732;7.690;2022-09-09T03:48:48;13.60;99.90
61412;DHT22;47278;49.732;7.690;2022-09-09T03:51:13;13.70;99.90
61412;DHT22;47278;49.732;7.690;2022-09-09T03:53:39;13.70;99.90
61412;DHT22;47278;49.732;7.690;2022-09-09T03:56:05;13.80;99.90
61412;DHT22;47278;49.732;7.690;2022-09-09T03:58:32;13.80;99.90
61412;DHT22;47278;49.732;7.690;2022-09-09T04:00:59;13.70;99.90
61412;DHT22;47278;49.732;7.690;2022-09-09T04:03:25;13.70;99.90
61412;DHT22;47278;49.732;7.690;2022-09-09T04:05:51;13.70;99.90
61412;DHT22;47278;49.732;7.690;2022-09-09T04:08:17;13.80;99.90
61412;DHT22;47278;49.732;7.690;2022-09-09T04:10:44;13.70;99.90
61412;DHT22;47278;49.732;7.690;2022-09-09T04:13:10;13.80;99.90
61412;DHT22;47278;49.732;7.690;2022-09-09T04:15:37;13.90;99.90
61412;DHT22;47278;49.732;7.690;2022-09-09T04:18:04;13.90;99.90
61412;DHT22;47278;49.732;7.690;2022-09-09T04:20:30;13.80;99.90
61412;DHT22;47278;49.732;7.690;2022-09-09T04:22:56;13.80;99.90
61412;DHT22;47278;49.732;7.690;2022-09-09T04:25:21;13.80;99.90
61412;DHT22;47278;49.732;7.690;2022-09-09T04:27:47;13.80;99.90
61412;DHT22;47278;49.732;7.690;2022-09-09T04:30:13;13.70;99.90
61412;DHT22;47278;49.732;7.690;2022-09-09T04:32:39;13.70;99.90
61412;DHT22;47278;49.732;7.690;2022-09-09T04:35:04;13.80;99.90
61412;DHT22;47278;49.732;7.690;2022-09-09T04:37:30;13.80;99.90
61412;DHT22;47278;49.732;7.690;2022-09-09T04:39:55;13.80;99.90
61412;DHT22;47278;49.732;7.690;2022-09-09T04:42:21;13.80;99.90
61412;DHT22;47278;49.732;7.690;2022-09-09T04:44:46;13.70;99.90
61412;DHT22;47278;49.732;7.690;2022-09-09T04:47:12;13.70;99.90
61412;DHT22;47278;49.732;7.690;2022-09-09T04:49:38;13.70;99.90
61412;DHT22;47278;49.732;7.690;2022-09-09T04:52:04;13.60;99.90
61412;DHT22;47278;49.732;7.690;2022-09-09T04:54:30;13.60;99.90
61412;DHT22;47278;49.732;7.690;2022-09-09T04:56:55;15.50;99.90
61412;DHT22;47278;49.732;7.690;2022-09-09T04:59:21;13.40;99.90
61412;DHT22;47278;49.732;7.690;2022-09-09T05:01:47;13.30;99.90
61412;DHT22;47278;49.732;7.690;2022-09-09T05:04:13;13.20;99.90
61412;DHT22;47278;49.732;7.690;2022-09-09T05:06:40;13.10;99.90
61412;DHT22;47278;49.732;7.690;2022-09-09T05:09:06;13.10;99.90
61412;DHT22;47278;49.732;7.690;2022-09-09T05:11:32;13.00;99.90
61412;DHT22;47278;49.732;7.690;2022-09-09T05:14:01;13.00;99.90
61412;DHT22;47278;49.732;7.690;2022-09-09T05:16:26;13.00;99.90
61412;DHT22;47278;49.732;7.690;2022-09-09T05:18:52;13.00;99.90
61412;DHT22;47278;49.732;7.690;2022-09-09T05:21:18;13.10;99.90
61412;DHT22;47278;49.732;7.690;2022-09-09T05:23:45;13.10;99.90
61412;DHT22;47278;49.732;7.690;2022-09-09T05:26:14;13.10;99.90
61412;DHT22;47278;49.732;7.690;2022-09-09T05:28:40;13.20;99.90
61412;DHT22;47278;49.732;7.690;2022-09-09T05:31:07;13.30;99.90
61412;DHT22;47278;49.732;7.690;2022-09-09T05:33:33;13.30;99.90
61412;DHT22;47278;49.732;7.690;2022-09-09T05:36:03;13.50;99.90
61412;DHT22;47278;49.732;7.690;2022-09-09T05:38:29;13.60;99.90
61412;DHT22;47278;49.732;7.690;2022-09-09T05:40:55;13.80;99.90
61412;DHT22;47278;49.732;7.690;2022-09-09T05:43:24;13.80;99.90
61412;DHT22;47278;49.732;7.690;2022-09-09T05:46:00;14.00;99.90
61412;DHT22;47278;49.732;7.690;2022-09-09T05:48:33;14.10;99.90
61412;DHT22;47278;49.732;7.690;2022-09-09T05:50:59;14.20;99.90
61412;DHT22;47278;49.732;7.690;2022-09-09T05:53:26;14.30;99.90
61412;DHT22;47278;49.732;7.690;2022-09-09T05:56:00;14.40;99.90
61412;DHT22;47278;49.732;7.690;2022-09-09T05:58:29;14.50;99.90
61412;DHT22;47278;49.732;7.690;2022-09-09T06:01:04;14.50;99.90
61412;DHT22;47278;49.732;7.690;2022-09-09T06:03:32;14.60;99.90
61412;DHT22;47278;49.732;7.690;2022-09-09T06:06:01;14.60;99.90
61412;DHT22;47278;49.732;7.690;2022-09-09T06:08:30;14.70;99.90
61412;DHT22;47278;49.732;7.690;2022-09-09T06:11:00;14.80;99.90
61412;DHT22;47278;49.732;7.690;2022-09-09T06:13:27;14.90;99.90
61412;DHT22;47278;49.732;7.690;2022-09-09T06:15:53;16.30;99.90
61412;DHT22;47278;49.732;7.690;2022-09-09T06:18:19;14.90;99.90
61412;DHT22;47278;49.732;7.690;2022-09-09T06:20:54;14.90;99.90
61412;DHT22;47278;49.732;7.690;2022-09-09T06:23:20;14.90;99.90
61412;DHT22;47278;49.732;7.690;2022-09-09T06:25:46;15.00;99.90
61412;DHT22;47278;49.732;7.690;2022-09-09T06:28:11;14.90;99.90
61412;DHT22;47278;49.732;7.690;2022-09-09T06:30:37;15.00;99.90
61412;DHT22;47278;49.732;7.690;2022-09-09T06:33:03;15.10;99.90
61412;DHT22;47278;49.732;7.690;2022-09-09T06:35:29;15.30;99.90
61412;DHT22;47278;49.732;7.690;2022-09-09T06:37:55;15.60;99.90
61412;DHT22;47278;49.732;7.690;2022-09-09T06:40:20;15.80;99.90
61412;DHT22;47278;49.732;7.690;2022-09-09T06:42:46;15.90;99.90
61412;DHT22;47278;49.732;7.690;2022-09-09T06:45:11;16.00;99.90
61412;DHT22;47278;49.732;7.690;2022-09-09T06:47:37;16.10;99.90
61412;DHT22;47278;49.732;7.690;2022-09-09T06:50:02;16.10;99.90
61412;DHT22;47278;49.732;7.690;2022-09-09T06:52:28;16.10;99.90
61412;DHT22;47278;49.732;7.690;2022-09-09T06:54:53;16.10;99.90
61412;DHT22;47278;49.732;7.690;2022-09-09T06:57:19;16.20;99.90
61412;DHT22;47278;49.732;7.690;2022-09-09T06:59:45;16.20;99.90
61412;DHT22;47278;49.732;7.690;2022-09-09T07:02:10;16.30;99.90
61412;DHT22;47278;49.732;7.690;2022-09-09T07:04:36;16.30;99.90
61412;DHT22;47278;49.732;7.690;2022-09-09T07:07:02;16.40;99.90
61412;DHT22;47278;49.732;7.690;2022-09-09T07:09:27;16.50;99.90
61412;DHT22;47278;49.732;7.690;2022-09-09T07:11:54;16.50;99.90
61412;DHT22;47278;49.732;7.690;2022-09-09T07:14:20;15.20;99.90
61412;DHT22;47278;49.732;7.690;2022-09-09T07:16:46;17.60;99.90
61412;DHT22;47278;49.732;7.690;2022-09-09T07:19:11;16.60;99.90
61412;DHT22;47278;49.732;7.690;2022-09-09T07:21:38;16.70;99.90
61412;DHT22;47278;49.732;7.690;2022-09-09T07:24:04;16.70;99.90
61412;DHT22;47278;49.732;7.690;2022-09-09T07:26:32;16.90;99.90
61412;DHT22;47278;49.732;7.690;2022-09-09T07:28:58;16.90;99.90
61412;DHT22;47278;49.732;7.690;2022-09-09T07:31:28;17.00;99.90
61412;DHT22;47278;49.732;7.690;2022-09-09T07:33:55;17.10;99.90
61412;DHT22;47278;49.732;7.690;2022-09-09T07:36:22;17.10;99.90
61412;DHT22;47278;49.732;7.690;2022-09-09T07:38:49;17.10;99.90
61412;DHT22;47278;49.732;7.690;2022-09-09T07:41:18;17.20;99.90
61412;DHT22;47278;49.732;7.690;2022-09-09T07:43:45;17.30;99.90
61412;DHT22;47278;49.732;7.690;2022-09-09T07:46:12;17.30;99.90
61412;DHT22;47278;49.732;7.690;2022-09-09T07:48:44;17.30;99.90
61412;DHT22;47278;49.732;7.690;2022-09-09T07:51:11;17.10;99.90
61412;DHT22;47278;49.732;7.690;2022-09-09T07:53:40;17.10;99.90
61412;DHT22;47278;49.732;7.690;2022-09-09T07:56:10;17.20;99.90
61412;DHT22;47278;49.732;7.690;2022-09-09T07:58:37;17.10;99.90
61412;DHT22;47278;49.732;7.690;2022-09-09T08:01:07;17.20;99.90
61412;DHT22;47278;49.732;7.690;2022-09-09T08:03:32;17.30;99.90
61412;DHT22;47278;49.732;7.690;2022-09-09T08:06:02;17.50;99.90
61412;DHT22;47278;49.732;7.690;2022-09-09T08:08:29;17.50;99.90
61412;DHT22;47278;49.732;7.690;2022-09-09T08:11:05;17.50;99.90
61412;DHT22;47278;49.732;7.690;2022-09-09T08:13:33;17.50;99.90
61412;DHT22;47278;49.732;7.690;2022-09-09T08:16:05;17.50;99.90
61412;DHT22;47278;49.732;7.690;2022-09-09T08:18:32;17.60;99.90
61412;DHT22;47278;49.732;7.690;2022-09-09T08:21:04;17.70;99.90
61412;DHT22;47278;49.732;7.690;2022-09-09T08:23:29;17.70;99.90
61412;DHT22;47278;49.732;7.690;2022-09-09T08:25:55;17.90;99.90
61412;DHT22;47278;49.732;7.690;2022-09-09T08:28:27;18.10;99.90
61412;DHT22;47278;49.732;7.690;2022-09-09T08:30:53;18.20;99.90
61412;DHT22;47278;49.732;7.690;2022-09-09T08:33:19;18.40;99.90
61412;DHT22;47278;49.732;7.690;2022-09-09T08:35:51;18.30;99.90
61412;DHT22;47278;49.732;7.690;2022-09-09T08:38:18;18.70;99.90
61412;DHT22;47278;49.732;7.690;2022-09-09T08:40:44;18.80;99.90
61412;DHT22;47278;49.732;7.690;2022-09-09T08:43:14;18.30;99.90
61412;DHT22;47278;49.732;7.690;2022-09-09T08:46:00;18.30;99.90
61412;DHT22;47278;49.732;7.690;2022-09-09T08:50:58;18.10;99.90
61412;DHT22;47278;49.732;7.690;2022-09-09T08:53:27;18.10;99.90
61412;DHT22;47278;49.732;7.690;2022-09-09T08:55:57;17.90;99.90
61412;DHT22;47278;49.732;7.690;2022-09-09T08:58:28;17.80;99.90
61412;DHT22;47278;49.732;7.690;2022-09-09T09:01:01;17.80;99.90
61412;DHT22;47278;49.732;7.690;2022-09-09T09:03:32;17.90;99.90
61412;DHT22;47278;49.732;7.690;2022-09-09T09:11:09;17.80;99.90
61412;DHT22;47278;49.732;7.690;2022-09-09T09:16:06;17.40;99.90
61412;DHT22;47278;49.732;7.690;2022-09-09T09:18:35;17.30;99.90
61412;DHT22;47278;49.732;7.690;2022-09-09T09:21:14;17.20;99.90
61412;DHT22;47278;49.732;7.690;2022-09-09T09:23:55;17.20;99.90
61412;DHT22;47278;49.732;7.690;2022-09-09T09:26:22;17.10;99.90
61412;DHT22;47278;49.732;7.690;2022-09-09T09:28:49;17.00;99.90
61412;DHT22;47278;49.732;7.690;2022-09-09T09:31:18;16.90;99.90
61412;DHT22;47278;49.732;7.690;2022-09-09T09:33:54;17.00;99.90
61412;DHT22;47278;49.732;7.690;2022-09-09T09:36:23;17.00;99.90
61412;DHT22;47278;49.732;7.690;2022-09-09T09:38:54;17.30;99.90
61412;DHT22;47278;49.732;7.690;2022-09-09T09:41:39;17.40;99.90
61412;DHT22;47278;49.732;7.690;2022-09-09T09:44:06;17.50;99.90
61412;DHT22;47278;49.732;7.690;2022-09-09T09:46:45;17.40;99.90
61412;DHT22;47278;49.732;7.690;2022-09-09T09:49:10;17.40;99.90
61412;DHT22;47278;49.732;7.690;2022-09-09T09:51:36;17.40;99.90
61412;DHT22;47278;49.732;7.690;2022-09-09T09:54:25;17.60;99.90
61412;DHT22;47278;49.732;7.690;2022-09-09T09:56:48;17.90;99.90
61412;DHT22;47278;49.732;7.690;2022-09-09T10:01:45;18.90;99.90
61412;DHT22;47278;49.732;7.690;2022-09-09T10:04:15;19.40;99.90
61412;DHT22;47278;49.732;7.690;2022-09-09T10:06:41;19.50;99.90
61412;DHT22;47278;49.732;7.690;2022-09-09T10:09:25;19.50;99.90
61412;DHT22;47278;49.732;7.690;2022-09-09T10:14:30;19.70;99.90
61412;DHT22;47278;49.732;7.690;2022-09-09T10:19:29;20.20;99.90
61412;DHT22;47278;49.732;7.690;2022-09-09T10:24:29;20.60;99.90
61412;DHT22;47278;49.732;7.690;2022-09-09T10:37:31;20.60;99.90
61412;DHT22;47278;49.732;7.690;2022-09-09T10:40:02;21.00;99.90
61412;DHT22;47278;49.732;7.690;2022-09-09T10:42:30;20.50;99.90
61412;DHT22;47278;49.732;7.690;2022-09-09T10:52:44;19.70;99.90
61412;DHT22;47278;49.732;7.690;2022-09-09T10:55:17;19.80;99.90
61412;DHT22;47278;49.732;7.690;2022-09-09T10:57:45;19.60;99.90
61412;DHT22;47278;49.732;7.690;2022-09-09T11:00:24;19.20;99.90
61412;DHT22;47278;49.732;7.690;2022-09-09T11:02:51;19.30;99.90
61412;DHT22;47278;49.732;7.690;2022-09-09T11:05:27;19.30;99.90
61412;DHT22;47278;49.732;7.690;2022-09-09T11:07:55;19.20;99.90
61412;DHT22;47278;49.732;7.690;2022-09-09T11:12:49;18.90;99.90
61412;DHT22;47278;49.732;7.690;2022-09-09T11:15:36;18.80;99.90
61412;DHT22;47278;49.732;7.690;2022-09-09T11:18:04;18.50;99.90
61412;DHT22;47278;49.732;7.690;2022-09-09T11:20:32;18.30;99.90
61412;DHT22;47278;49.732;7.690;2022-09-09T11:23:21;17.80;99.90
61412;DHT22;47278;49.732;7.690;2022-09-09T11:25:57;17.30;99.90
61412;DHT22;47278;49.732;7.690;2022-09-09T11:39:48;16.50;99.90
61412;DHT22;47278;49.732;7.690;2022-09-09T11:42:18;16.50;99.90
61412;DHT22;47278;49.732;7.690;2022-09-09T11:44:44;16.50;99.90
61412;DHT22;47278;49.732;7.690;2022-09-09T11:47:31;16.50;99.90
61412;DHT22;47278;49.732;7.690;2022-09-09T11:50:07;16.50;99.90
61412;DHT22;47278;49.732;7.690;2022-09-09T11:52:39;16.50;99.90
61412;DHT22;47278;49.732;7.690;2022-09-09T12:00:29;17.30;99.90
61412;DHT22;47278;49.732;7.690;2022-09-09T12:02:56;17.80;99.90
61412;DHT22;47278;49.732;7.690;2022-09-09T12:05:21;18.10;99.90
61412;DHT22;47278;49.732;7.690;2022-09-09T12:07:50;18.20;99.90
61412;DHT22;47278;49.732;7.690;2022-09-09T12:12:47;18.40;99.90
61412;DHT22;47278;49.732;7.690;2022-09-09T12:17:42;19.10;99.90
61412;DHT22;47278;49.732;7.690;2022-09-09T12:20:12;19.30;99.90
61412;DHT22;47278;49.732;7.690;2022-09-09T12:27:47;19.60;99.90
61412;DHT22;47278;49.732;7.690;2022-09-09T12:30:16;19.30;99.90
61412;DHT22;47278;49.732;7.690;2022-09-09T12:32:42;19.40;99.90
61412;DHT22;47278;49.732;7.690;2022-09-09T12:37:57;20.30;99.90
61412;DHT22;47278;49.732;7.690;2022-09-09T12:40:25;20.70;99.90
61412;DHT22;47278;49.732;7.690;2022-09-09T12:42:51;20.30;99.90
61412;DHT22;47278;49.732;7.690;2022-09-09T12:45:23;19.90;99.90
61412;DHT22;47278;49.732;7.690;2022-09-09T12:50:26;19.80;99.90
61412;DHT22;47278;49.732;7.690;2022-09-09T12:52:55;19.70;99.90
61412;DHT22;47278;49.732;7.690;2022-09-09T12:55:25;19.20;99.90
61412;DHT22;47278;49.732;7.690;2022-09-09T12:57:53;20.60;99.90
61412;DHT22;47278;49.732;7.690;2022-09-09T13:00:21;18.90;99.90
61412;DHT22;47278;49.732;7.690;2022-09-09T13:02:53;18.60;99.90
61412;DHT22;47278;49.732;7.690;2022-09-09T13:07:50;18.30;99.90
61412;DHT22;47278;49.732;7.690;2022-09-09T13:10:28;18.30;99.90
61412;DHT22;47278;49.732;7.690;2022-09-09T13:12:54;18.20;99.90
61412;DHT22;47278;49.732;7.690;2022-09-09T13:15:24;18.10;99.90
61412;DHT22;47278;49.732;7.690;2022-09-09T13:17:57;18.00;99.90
61412;DHT22;47278;49.732;7.690;2022-09-09T13:20:26;17.90;99.90
61412;DHT22;47278;49.732;7.690;2022-09-09T13:22:54;17.80;99.90
61412;DHT22;47278;49.732;7.690;2022-09-09T13:25:26;17.80;99.90
61412;DHT22;47278;49.732;7.690;2022-09-09T13:28:00;17.80;99.90
61412;DHT22;47278;49.732;7.690;2022-09-09T13:30:35;17.70;99.90
61412;DHT22;47278;49.732;7.690;2022-09-09T13:35:36;17.60;99.90
61412;DHT22;47278;49.732;7.690;2022-09-09T13:38:14;17.40;99.90
61412;DHT22;47278;49.732;7.690;2022-09-09T13:40:40;17.40;99.90
61412;DHT22;47278;49.732;7.690;2022-09-09T13:43:15;17.30;99.90
61412;DHT22;47278;49.732;7.690;2022-09-09T13:46:03;17.20;99.90
61412;DHT22;47278;49.732;7.690;2022-09-09T13:48:29;17.30;99.90
61412;DHT22;47278;49.732;7.690;2022-09-09T13:51:04;17.30;99.90
61412;DHT22;47278;49.732;7.690;2022-09-09T13:53:32;17.20;99.90
61412;DHT22;47278;49.732;7.690;2022-09-09T13:55:58;17.20;99.90
61412;DHT22;47278;49.732;7.690;2022-09-09T13:58:25;17.30;99.90
61412;DHT22;47278;49.732;7.690;2022-09-09T14:00:52;17.30;99.90
61412;DHT22;47278;49.732;7.690;2022-09-09T14:03:18;17.40;99.90
61412;DHT22;47278;49.732;7.690;2022-09-09T14:05:44;17.40;99.90
61412;DHT22;47278;49.732;7.690;2022-09-09T14:08:21;17.30;99.90
61412;DHT22;47278;49.732;7.690;2022-09-09T14:10:48;17.50;99.90
61412;DHT22;47278;49.732;7.690;2022-09-09T14:13:13;17.80;99.90
61412;DHT22;47278;49.732;7.690;2022-09-09T14:15:41;18.30;99.90
61412;DHT22;47278;49.732;7.690;2022-09-09T14:18:10;18.90;99.90
61412;DHT22;47278;49.732;7.690;2022-09-09T14:20:37;19.50;99.90
61412;DHT22;47278;49.732;7.690;2022-09-09T14:23:02;19.40;99.90
61412;DHT22;47278;49.732;7.690;2022-09-09T14:25:28;19.30;99.90
61412;DHT22;47278;49.732;7.690;2022-09-09T14:27:54;18.90;99.90
61412;DHT22;47278;49.732;7.690;2022-09-09T14:30:19;18.80;99.90
61412;DHT22;47278;49.732;7.690;2022-09-09T14:32:45;18.90;99.90
61412;DHT22;47278;49.732;7.690;2022-09-09T14:35:10;18.80;99.90
61412;DHT22;47278;49.732;7.690;2022-09-09T14:37:37;18.60;99.90
61412;DHT22;47278;49.732;7.690;2022-09-09T14:40:04;18.60;99.90
61412;DHT22;47278;49.732;7.690;2022-09-09T14:42:30;18.50;99.90
61412;DHT22;47278;49.732;7.690;2022-09-09T14:44:56;18.40;99.90
61412;DHT22;47278;49.732;7.690;2022-09-09T14:47:22;18.20;99.90
61412;DHT22;47278;49.732;7.690;2022-09-09T14:49:49;18.10;99.90
61412;DHT22;47278;49.732;7.690;2022-09-09T14:52:15;18.00;99.90
61412;DHT22;47278;49.732;7.690;2022-09-09T14:54:41;17.90;99.90
61412;DHT22;47278;49.732;7.690;2022-09-09T14:57:07;17.80;99.90
61412;DHT22;47278;49.732;7.690;2022-09-09T14:59:33;17.80;99.90
61412;DHT22;47278;49.732;7.690;2022-09-09T15:02:00;17.80;99.90
61412;DHT22;47278;49.732;7.690;2022-09-09T15:04:29;17.60;99.90
61412;DHT22;47278;49.732;7.690;2022-09-09T15:06:55;17.60;99.90
61412;DHT22;47278;49.732;7.690;2022-09-09T15:09:20;17.50;99.90
61412;DHT22;47278;49.732;7.690;2022-09-09T15:11:46;17.60;99.90
61412;DHT22;47278;49.732;7.690;2022-09-09T15:14:12;17.50;99.90
61412;DHT22;47278;49.732;7.690;2022-09-09T15:16:38;17.40;99.90
61412;DHT22;47278;49.732;7.690;2022-09-09T15:19:04;17.40;99.90
61412;DHT22;47278;49.732;7.690;2022-09-09T15:21:32;17.40;99.90
61412;DHT22;47278;49.732;7.690;2022-09-09T15:23:58;17.40;99.90
61412;DHT22;47278;49.732;7.690;2022-09-09T15:26:25;17.30;99.90
61412;DHT22;47278;49.732;7.690;2022-09-09T15:28:51;17.30;99.90
61412;DHT22;47278;49.732;7.690;2022-09-09T15:31:20;17.30;99.90
61412;DHT22;47278;49.732;7.690;2022-09-09T15:33:54;17.30;99.90
61412;DHT22;47278;49.732;7.690;2022-09-09T15:36:31;17.20;99.90
61412;DHT22;47278;49.732;7.690;2022-09-09T15:38:58;17.10;99.90
61412;DHT22;47278;49.732;7.690;2022-09-09T15:41:24;17.10;99.90
61412;DHT22;47278;49.732;7.690;2022-09-09T15:43:52;17.00;99.90
61412;DHT22;47278;49.732;7.690;2022-09-09T15:46:35;17.00;99.90
61412;DHT22;47278;49.732;7.690;2022-09-09T15:49:08;17.10;99.90
61412;DHT22;47278;49.732;7.690;2022-09-09T15:51:35;17.00;99.90
61412;DHT22;47278;49.732;7.690;2022-09-09T15:54:01;16.20;99.90
61412;DHT22;47278;49.732;7.690;2022-09-09T15:56:28;17.10;99.90
61412;DHT22;47278;49.732;7.690;2022-09-09T15:58:56;17.10;99.90
61412;DHT22;47278;49.732;7.690;2022-09-09T16:01:22;17.00;99.90
61412;DHT22;47278;49.732;7.690;2022-09-09T16:03:48;16.90;99.90
61412;DHT22;47278;49.732;7.690;2022-09-09T16:06:16;16.80;99.90
61412;DHT22;47278;49.732;7.690;2022-09-09T16:08:44;16.70;99.90
61412;DHT22;47278;49.732;7.690;2022-09-09T16:11:13;16.60;99.90
61412;DHT22;47278;49.732;7.690;2022-09-09T16:13:41;16.50;99.90
61412;DHT22;47278;49.732;7.690;2022-09-09T16:16:09;16.40;99.90
61412;DHT22;47278;49.732;7.690;2022-09-09T16:18:36;16.20;99.90
61412;DHT22;47278;49.732;7.690;2022-09-09T16:21:02;16.20;99.90
61412;DHT22;47278;49.732;7.690;2022-09-09T16:23:28;16.10;99.90
61412;DHT22;47278;49.732;7.690;2022-09-09T16:25:54;15.90;99.90
61412;DHT22;47278;49.732;7.690;2022-09-09T16:28:20;15.80;99.90
61412;DHT22;47278;49.732;7.690;2022-09-09T16:30:46;15.80;99.90
61412;DHT22;47278;49.732;7.690;2022-09-09T16:33:12;15.60;99.90
61412;DHT22;47278;49.732;7.690;2022-09-09T16:35:40;15.40;99.90
61412;DHT22;47278;49.732;7.690;2022-09-09T16:38:06;15.20;99.90
61412;DHT22;47278;49.732;7.690;2022-09-09T16:40:35;15.20;99.90
61412;DHT22;47278;49.732;7.690;2022-09-09T16:43:02;15.20;99.90
61412;DHT22;47278;49.732;7.690;2022-09-09T16:45:27;15.10;99.90
61412;DHT22;47278;49.732;7.690;2022-09-09T16:47:53;15.10;99.90
61412;DHT22;47278;49.732;7.690;2022-09-09T16:50:19;15.00;99.90
61412;DHT22;47278;49.732;7.690;2022-09-09T16:52:45;15.10;99.90
61412;DHT22;47278;49.732;7.690;2022-09-09T16:55:10;15.10;99.90
61412;DHT22;47278;49.732;7.690;2022-09-09T16:57:36;15.00;99.90
61412;DHT22;47278;49.732;7.690;2022-09-09T17:00:04;15.00;99.90
61412;DHT22;47278;49.732;7.690;2022-09-09T17:02:31;14.90;99.90
61412;DHT22;47278;49.732;7.690;2022-09-09T17:04:57;15.00;99.90
61412;DHT22;47278;49.732;7.690;2022-09-09T17:07:22;15.00;99.90
61412;DHT22;47278;49.732;7.690;2022-09-09T17:09:48;14.90;99.90
61412;DHT22;47278;49.732;7.690;2022-09-09T17:12:14;14.90;99.90
61412;DHT22;47278;49.732;7.690;2022-09-09T17:14:41;14.90;99.90
61412;DHT22;47278;49.732;7.690;2022-09-09T17:17:07;14.90;99.90
61412;DHT22;47278;49.732;7.690;2022-09-09T17:19:33;14.90;99.90
61412;DHT22;47278;49.732;7.690;2022-09-09T17:21:59;14.80;99.90
61412;DHT22;47278;49.732;7.690;2022-09-09T17:24:26;14.90;99.90
61412;DHT22;47278;49.732;7.690;2022-09-09T17:26:54;14.80;99.90
61412;DHT22;47278;49.732;7.690;2022-09-09T17:29:21;14.80;99.90
61412;DHT22;47278;49.732;7.690;2022-09-09T17:31:46;14.70;99.90
61412;DHT22;47278;49.732;7.690;2022-09-09T17:34:12;14.70;99.90